createdAt,value
2023-11-06T00:02:21.267Z,98138.73
2023-11-06T00:06:07.977Z,98145.56
2023-11-06T00:09:36.597Z,98152.70
2023-11-06T00:13:14.315Z,98161.00
2023-11-06T00:17:00.027Z,98175.65
2023-11-06T00:20:29.784Z,98177.20
2023-11-06T00:24:14.499Z,98184.09
2023-11-06T00:27:45.105Z,98192.10
2023-11-06T00:31:22.774Z,98203.95
2023-11-06T00:35:00.568Z,98207.20
2023-11-06T00:38:46.171Z,98219.67
2023-11-06T00:42:23.866Z,98222.45
2023-11-06T00:46:01.634Z,98225.86
2023-11-06T00:49:31.294Z,98231.13
2023-11-06T00:53:09.093Z,98235.02
2023-11-06T00:56:46.683Z,98241.45
2023-11-06T01:00:25.427Z,98247.72
2023-11-06T01:04:10.075Z,98250.98
2023-11-06T01:07:47.758Z,98258.81
2023-11-06T01:11:17.529Z,98258.80
2023-11-06T01:15:03.643Z,98261.60
2023-11-06T01:18:40.952Z,98271.89
2023-11-06T01:22:11.517Z,98277.23
2023-11-06T01:25:57.318Z,98281.42
2023-11-06T01:29:26.002Z,98286.14
2023-11-06T01:33:03.734Z,98299.16
2023-11-06T01:36:48.332Z,98307.53
2023-11-06T01:40:20.068Z,98315.45
2023-11-06T01:43:59.856Z,98324.90
2023-11-06T01:47:34.438Z,98334.05
2023-11-06T01:51:20.085Z,98333.60
2023-11-06T01:54:57.792Z,98335.46
2023-11-06T01:58:28.485Z,98338.56
2023-11-06T02:02:14.348Z,98346.16
2023-11-06T02:05:43.957Z,98355.92
2023-11-06T02:09:23.592Z,98359.97
2023-11-06T02:13:07.255Z,98369.58
2023-11-06T02:16:43.940Z,98371.36
2023-11-06T02:20:21.745Z,98378.33
2023-11-06T02:23:54.348Z,98379.16
2023-11-06T02:27:29.001Z,98383.36
2023-11-06T02:31:14.727Z,98387.22
2023-11-06T02:34:47.689Z,98392.65
2023-11-06T02:38:30.116Z,98402.02
2023-11-06T02:42:07.929Z,98405.98
2023-11-06T02:45:45.498Z,98418.47
2023-11-06T02:49:18.183Z,98424.97
2023-11-06T02:52:54.921Z,98434.59
2023-11-06T02:56:40.596Z,98444.59
2023-11-06T03:00:08.551Z,98452.05
2023-11-06T03:03:46.057Z,98461.11
2023-11-06T03:07:23.672Z,98468.48
2023-11-06T03:11:09.452Z,98471.67
2023-11-06T03:14:39.080Z,98480.81
2023-11-06T03:18:16.825Z,98488.73
2023-11-06T03:22:02.500Z,98498.02
2023-11-06T03:25:36.216Z,98500.67
2023-11-06T03:29:17.901Z,98510.36
2023-11-06T03:32:47.699Z,98524.40
2023-11-06T03:36:33.378Z,98533.48
2023-11-06T03:40:13.007Z,98540.98
2023-11-06T03:43:48.718Z,98547.35
2023-11-06T03:47:26.456Z,98543.63
2023-11-06T03:51:04.003Z,98553.86
2023-11-06T03:54:33.753Z,98552.99
2023-11-06T03:58:19.414Z,98559.44
2023-11-06T04:01:49.238Z,98565.70
2023-11-06T04:05:26.997Z,98569.42
2023-11-06T04:09:04.526Z,98580.44
2023-11-06T04:12:42.228Z,98586.95
2023-11-06T04:16:19.975Z,98591.67
2023-11-06T04:20:05.721Z,98600.36
2023-11-06T04:23:43.287Z,98604.16
2023-11-06T04:27:20.987Z,98605.16
2023-11-06T04:30:50.713Z,98613.06
2023-11-06T04:34:28.377Z,98627.89
2023-11-06T04:38:15.092Z,98637.65
2023-11-06T04:41:51.846Z,98645.23
2023-11-06T04:45:24.544Z,98653.30
2023-11-06T04:49:02.188Z,98660.98
2023-11-06T04:52:40.013Z,98665.25
2023-11-06T04:56:15.647Z,98676.64
2023-11-06T05:00:00.293Z,98677.65
2023-11-06T05:03:38.029Z,98683.86
2023-11-06T05:07:07.652Z,98687.89
2023-11-06T05:10:45.338Z,98689.58
2023-11-06T05:14:31.083Z,98694.69
2023-11-06T05:18:04.846Z,98704.92
2023-11-06T05:21:48.458Z,98717.73
2023-11-06T05:25:24.195Z,98723.77
2023-11-06T05:28:56.854Z,98731.13
2023-11-06T05:32:39.708Z,98738.50
2023-11-06T05:36:19.238Z,98750.68
2023-11-06T05:39:54.935Z,98758.83
2023-11-06T05:43:32.607Z,98761.77
2023-11-06T05:47:11.343Z,98766.58
2023-11-06T05:50:47.998Z,98773.27
2023-11-06T05:54:25.706Z,98781.63
2023-11-06T05:58:03.403Z,98786.28
2023-11-06T06:01:41.147Z,98793.89
2023-11-06T06:05:18.927Z,98801.55
2023-11-06T06:08:44.259Z,98810.86
2023-11-06T06:11:13.664Z,98812.09
2023-11-06T06:13:42.866Z,98823.48
2023-11-06T06:16:12.089Z,98824.27
2023-11-06T06:18:41.500Z,98833.17
2023-11-06T06:21:10.776Z,98839.16
2023-11-06T06:23:40.096Z,98841.80
2023-11-06T06:26:09.361Z,98844.96
2023-11-06T06:28:38.663Z,98855.73
2023-11-06T06:31:07.960Z,98867.60
2023-11-06T06:33:37.322Z,98871.40
2023-11-06T06:36:12.336Z,98879.41
2023-11-06T06:38:43.530Z,98879.25
2023-11-06T06:41:12.769Z,98881.74
2023-11-06T06:43:41.960Z,98883.30
2023-11-06T06:46:39.122Z,98886.02
2023-11-06T06:49:01.255Z,98888.24
2023-11-06T06:51:30.654Z,98886.91
2023-11-06T06:54:03.413Z,98893.01
2023-11-06T06:56:32.818Z,98894.23
2023-11-06T06:59:02.774Z,98895.05
2023-11-06T07:01:31.984Z,98897.84
2023-11-06T07:04:04.159Z,98900.26
2023-11-06T07:06:34.562Z,98901.42
2023-11-06T07:09:04.239Z,98904.92
2023-11-06T07:11:33.474Z,98914.42
2023-11-06T07:14:02.769Z,98919.80
2023-11-06T07:16:32.181Z,98923.13
2023-11-06T07:19:01.385Z,98930.13
2023-11-06T07:21:30.625Z,98933.95
2023-11-06T07:23:59.829Z,98935.61
2023-11-06T07:26:29.609Z,98938.03
2023-11-06T07:28:58.847Z,98942.94
2023-11-06T07:31:28.051Z,98947.79
2023-11-06T07:33:57.438Z,98952.89
2023-11-06T07:36:47.380Z,98954.52
2023-11-06T07:39:16.838Z,98958.09
2023-11-06T07:41:46.541Z,98959.90
2023-11-06T07:44:15.980Z,98963.97
2023-11-06T07:46:45.328Z,98970.20
2023-11-06T07:49:14.566Z,98975.84
2023-11-06T07:51:43.926Z,98972.38
2023-11-06T07:54:13.217Z,98974.30
2023-11-06T07:56:44.100Z,98973.63
2023-11-06T07:59:13.460Z,98974.98
2023-11-06T08:01:42.681Z,98978.59
2023-11-06T08:04:12.779Z,98984.54
2023-11-06T08:06:43.268Z,98994.59
2023-11-06T08:09:13.640Z,98995.13
2023-11-06T08:11:42.999Z,98999.91
2023-11-06T08:14:12.561Z,99009.13
2023-11-06T08:16:44.882Z,99010.27
2023-11-06T08:19:15.032Z,99015.38
2023-11-06T08:21:44.466Z,99018.99
2023-11-06T08:24:13.738Z,99023.47
2023-11-06T08:26:43.155Z,99021.95
2023-11-06T08:29:12.567Z,99029.91
2023-11-06T08:31:41.801Z,99033.71
2023-11-06T08:34:11.696Z,99035.98
2023-11-06T08:36:44.859Z,99038.20
2023-11-06T08:39:17.691Z,99040.83
2023-11-06T08:41:47.362Z,99041.69
2023-11-06T08:44:16.824Z,99050.71
2023-11-06T08:46:46.610Z,99050.32
2023-11-06T08:49:22.789Z,99056.15
2023-11-06T08:51:55.146Z,99061.91
2023-11-06T08:54:27.543Z,99067.29
2023-11-06T08:56:59.094Z,99068.09
2023-11-06T08:59:44.865Z,99078.66
2023-11-06T09:02:19.564Z,99082.80
2023-11-06T09:04:48.895Z,99084.90
2023-11-06T09:07:18.887Z,99089.41
2023-11-06T09:09:49.005Z,99094.32
2023-11-06T09:12:18.880Z,99098.45
2023-11-06T09:14:48.520Z,99101.17
2023-11-06T09:17:17.734Z,99104.91
2023-11-06T09:20:01.076Z,99108.95
2023-11-06T09:23:10.786Z,99111.98
2023-11-06T09:25:40.105Z,99114.63
2023-11-06T09:28:09.382Z,99125.35
2023-11-06T09:30:38.738Z,99126.14
2023-11-06T09:33:08.451Z,99130.89
2023-11-06T09:35:37.947Z,99138.54
2023-11-06T09:38:08.482Z,99140.08
2023-11-06T09:40:39.346Z,99146.30
2023-11-06T09:43:08.919Z,99149.42
2023-11-06T09:45:41.533Z,99146.31
2023-11-06T09:48:14.713Z,99157.15
2023-11-06T09:50:47.121Z,99163.39
2023-11-06T09:53:16.800Z,99165.73
2023-11-06T09:55:47.111Z,99179.27
2023-11-06T09:58:16.449Z,99180.28
2023-11-06T10:00:46.774Z,99180.30
2023-11-06T10:03:39.696Z,99180.45
2023-11-06T10:06:06.638Z,99180.52
2023-11-06T10:08:40.640Z,99183.40
2023-11-06T10:11:11.026Z,99192.67
2023-11-06T10:13:52.081Z,99194.70
2023-11-06T10:19:39.268Z,99205.77
2023-11-06T10:22:16.430Z,99210.13
2023-11-06T10:24:51.869Z,99218.23
2023-11-06T10:27:26.075Z,99220.08
2023-11-06T10:30:02.484Z,99222.64
2023-11-06T10:32:33.205Z,99224.59
2023-11-06T10:38:06.668Z,99225.44
2023-11-06T10:40:38.481Z,99227.98
2023-11-06T10:46:52.996Z,99239.02
2023-11-06T10:49:27.894Z,99241.26
2023-11-06T10:52:07.300Z,99240.66
2023-11-06T10:54:36.834Z,99232.06
2023-11-06T10:57:06.913Z,99233.35
2023-11-06T10:59:36.478Z,99240.89
2023-11-06T11:02:08.004Z,99244.40
2023-11-06T11:04:37.734Z,99244.10
2023-11-06T11:07:08.328Z,99252.27
2023-11-06T11:09:37.616Z,99255.73
2023-11-06T11:12:07.636Z,99261.23
2023-11-06T11:14:36.902Z,99267.65
2023-11-06T11:17:09.752Z,99265.65
2023-11-06T11:19:39.577Z,99267.14
2023-11-06T11:22:29.620Z,99268.55
2023-11-06T11:24:59.181Z,99266.00
2023-11-06T11:27:28.956Z,99271.38
2023-11-06T11:30:10.330Z,99269.75
2023-11-06T11:32:44.734Z,99282.76
2023-11-06T11:35:31.374Z,99288.83
2023-11-06T11:38:01.658Z,99291.95
2023-11-06T11:40:59.236Z,99295.36
2023-11-06T11:43:49.504Z,99297.16
2023-11-06T11:47:26.227Z,99299.98
2023-11-06T11:50:33.495Z,99303.87
2023-11-06T11:53:03.241Z,99304.88
2023-11-06T11:55:33.810Z,99307.47
2023-11-06T11:58:05.219Z,99309.33
2023-11-06T12:00:35.200Z,99316.48
2023-11-06T12:03:08.144Z,99321.41
2023-11-06T12:05:40.783Z,99322.25
2023-11-06T12:08:20.201Z,99328.08
2023-11-06T12:10:50.212Z,99330.73
2023-11-06T12:13:22.057Z,99334.77
2023-11-06T12:15:53.370Z,99338.66
2023-11-06T12:18:23.707Z,99342.77
2023-11-06T12:20:57.268Z,99349.14
2023-11-06T12:23:31.365Z,99346.88
2023-11-06T12:26:08.929Z,99348.58
2023-11-06T12:28:42.115Z,99350.75
2023-11-06T12:31:12.018Z,99346.55
2023-11-06T12:33:44.360Z,99350.14
2023-11-06T12:36:30.053Z,99347.92
2023-11-06T12:39:00.873Z,99348.19
2023-11-06T12:41:31.097Z,99354.19
2023-11-06T12:44:02.184Z,99356.30
2023-11-06T12:46:53.964Z,99359.66
2023-11-06T12:49:44.130Z,99361.93
2023-11-06T12:52:13.378Z,99368.24
2023-11-06T12:54:42.798Z,99374.08
2023-11-06T12:57:12.428Z,99381.34
2023-11-06T12:59:41.759Z,99384.27
2023-11-06T13:02:11.187Z,99383.89
2023-11-06T13:04:40.840Z,99396.95
2023-11-06T13:07:10.127Z,99399.98
2023-11-06T13:09:39.534Z,99396.86
2023-11-06T13:12:10.463Z,99405.33
2023-11-06T13:14:41.483Z,99405.42
2023-11-06T13:17:10.832Z,99405.89
2023-11-06T13:19:40.580Z,99405.94
2023-11-06T13:22:29.699Z,99413.08
2023-11-06T13:24:58.903Z,99418.98
2023-11-06T13:27:28.626Z,99422.63
2023-11-06T13:29:57.864Z,99428.52
2023-11-06T13:32:27.063Z,99429.27
2023-11-06T13:34:56.439Z,99435.33
2023-11-06T13:37:25.670Z,99437.66
2023-11-06T13:39:55.127Z,99444.65
2023-11-06T13:42:24.356Z,99445.80
2023-11-06T13:44:53.613Z,99447.71
2023-11-06T13:47:22.841Z,99452.48
2023-11-06T13:49:52.167Z,99447.29
2023-11-06T13:52:22.451Z,99451.44
2023-11-06T13:54:51.796Z,99454.42
2023-11-06T13:57:20.949Z,99452.09
2023-11-06T13:59:50.213Z,99454.23
2023-11-06T14:02:20.032Z,99456.67
2023-11-06T14:04:49.280Z,99458.63
2023-11-06T14:07:20.883Z,99463.77
2023-11-06T14:09:50.126Z,99462.36
2023-11-06T14:12:19.423Z,99468.61
2023-11-06T14:14:48.739Z,99475.42
2023-11-06T14:17:18.088Z,99478.54
2023-11-06T14:19:47.345Z,99484.15
2023-11-06T14:22:16.553Z,99480.83
2023-11-06T14:24:45.802Z,99482.84
2023-11-06T14:27:14.994Z,99483.60
2023-11-06T14:29:44.298Z,99488.98
2023-11-06T14:32:13.684Z,99492.73
2023-11-06T14:34:42.890Z,99497.56
2023-11-06T14:37:12.093Z,99500.45
2023-11-06T14:39:41.287Z,99505.02
2023-11-06T14:42:10.457Z,99507.61
2023-11-06T14:45:10.383Z,99515.61
2023-11-06T14:47:29.656Z,99516.52
2023-11-06T14:49:58.933Z,99516.37
2023-11-06T14:52:28.115Z,99523.11
2023-11-06T14:54:57.313Z,99527.10
2023-11-06T14:57:26.524Z,99529.92
2023-11-06T14:59:58.529Z,99527.15
2023-11-06T15:02:30.937Z,99527.88
2023-11-06T15:05:00.299Z,99526.59
2023-11-06T15:07:29.605Z,99536.04
2023-11-06T15:09:58.942Z,99536.14
2023-11-06T15:12:28.167Z,99541.52
2023-11-06T15:15:00.008Z,99553.73
2023-11-06T15:17:31.616Z,99562.08
2023-11-06T15:20:00.846Z,99566.46
2023-11-06T15:22:30.238Z,99572.15
2023-11-06T15:24:59.492Z,99578.40
2023-11-06T15:27:30.283Z,99578.88
2023-11-06T15:29:59.626Z,99580.28
2023-11-06T15:32:28.911Z,99582.81
2023-11-06T15:34:59.005Z,99586.48
2023-11-06T15:38:00.033Z,99590.25
2023-11-06T15:40:22.812Z,99592.05
2023-11-06T15:42:53.918Z,99592.53
2023-11-06T15:45:23.130Z,99596.82
2023-11-06T15:47:52.624Z,99600.50
2023-11-06T15:50:22.479Z,99599.42
2023-11-06T15:52:51.694Z,99601.07
2023-11-06T15:55:20.908Z,99605.60
2023-11-06T15:57:50.152Z,99606.10
2023-11-06T16:00:19.693Z,99606.30
2023-11-06T16:02:49.025Z,99608.73
2023-11-06T16:05:18.427Z,99609.15
2023-11-06T16:07:47.654Z,99609.02
2023-11-06T16:10:16.855Z,99613.05
2023-11-06T16:12:46.104Z,99614.17
2023-11-06T16:15:15.374Z,99617.80
2023-11-06T16:17:44.667Z,99617.23
2023-11-06T16:20:14.516Z,99622.05
2023-11-06T16:23:08.750Z,99621.08
2023-11-06T16:25:35.261Z,99618.46
2023-11-06T16:28:04.668Z,99624.30
2023-11-06T16:30:33.850Z,99626.02
2023-11-06T16:33:03.294Z,99622.75
2023-11-06T16:35:32.861Z,99623.23
2023-11-06T16:38:02.185Z,99628.09
2023-11-06T16:40:32.010Z,99629.30
2023-11-06T16:43:01.260Z,99630.39
2023-11-06T16:45:30.489Z,99634.02
2023-11-06T16:47:59.844Z,99637.30
2023-11-06T16:50:29.377Z,99637.19
2023-11-06T16:52:58.649Z,99639.10
2023-11-06T16:55:27.871Z,99642.66
2023-11-06T16:57:57.071Z,99646.09
2023-11-06T17:00:28.796Z,99645.70
2023-11-06T17:02:58.958Z,99647.39
2023-11-06T17:05:29.195Z,99653.13
2023-11-06T17:07:58.493Z,99654.28
2023-11-06T17:10:27.742Z,99654.19
2023-11-06T17:12:56.985Z,99653.65
2023-11-06T17:15:26.201Z,99654.31
2023-11-06T17:17:55.701Z,99652.84
2023-11-06T17:20:25.166Z,99657.27
2023-11-06T17:22:54.410Z,99657.31
2023-11-06T17:25:23.687Z,99653.14
2023-11-06T17:28:00.764Z,99655.00
2023-11-06T17:30:55.084Z,99659.79
2023-11-06T17:33:22.311Z,99669.73
2023-11-06T17:35:51.605Z,99669.77
2023-11-06T17:38:42.549Z,99677.30
2023-11-06T17:41:14.647Z,99681.92
2023-11-06T17:43:46.267Z,99682.64
2023-11-06T17:46:16.749Z,99687.33
2023-11-06T17:48:46.199Z,99688.67
2023-11-06T17:51:35.418Z,99688.84
2023-11-06T17:54:04.799Z,99694.79
2023-11-06T17:56:36.934Z,99695.77
2023-11-06T17:59:11.573Z,99697.96
2023-11-06T18:01:43.916Z,99701.73
2023-11-06T18:04:16.224Z,99705.10
2023-11-06T18:07:05.428Z,99705.34
2023-11-06T18:09:40.378Z,99707.88
2023-11-06T18:12:12.199Z,99715.64
2023-11-06T18:14:41.500Z,99722.77
2023-11-06T18:17:15.081Z,99722.79
2023-11-06T18:20:12.367Z,99727.65
2023-11-06T18:22:57.808Z,99724.45
2023-11-06T18:25:29.381Z,99730.81
2023-11-06T18:28:18.523Z,99728.58
2023-11-06T18:30:58.303Z,99732.08
2023-11-06T18:33:27.634Z,99735.23
2023-11-06T18:35:56.982Z,99740.40
2023-11-06T18:38:26.269Z,99742.33
2023-11-06T18:40:55.543Z,99746.01
2023-11-06T18:43:24.749Z,99749.77
2023-11-06T18:45:54.101Z,99751.86
2023-11-06T18:48:23.371Z,99759.98
2023-11-06T18:50:52.790Z,99759.98
2023-11-06T18:53:22.027Z,99762.14
2023-11-06T18:55:51.286Z,99765.52
2023-11-06T18:58:20.528Z,99761.92
2023-11-06T19:00:49.755Z,99768.11
2023-11-06T19:03:19.089Z,99769.57
2023-11-06T19:05:50.513Z,99769.91
2023-11-06T19:08:21.964Z,99773.61
2023-11-06T19:10:52.600Z,99776.71
2023-11-06T19:13:21.831Z,99773.89
2023-11-06T19:15:51.056Z,99778.20
2023-11-06T19:18:30.877Z,99777.11
2023-11-06T19:21:00.367Z,99780.08
2023-11-06T19:23:29.650Z,99779.03
2023-11-06T19:26:06.677Z,99780.40
2023-11-06T19:28:35.915Z,99780.52
2023-11-06T19:31:05.608Z,99783.48
2023-11-06T19:33:34.935Z,99782.09
2023-11-06T19:36:04.549Z,99785.52
2023-11-06T19:38:34.000Z,99786.95
2023-11-06T19:41:03.205Z,99790.07
2023-11-06T19:43:32.400Z,99794.40
2023-11-06T19:46:01.617Z,99795.75
2023-11-06T19:48:31.145Z,99797.16
2023-11-06T19:51:01.279Z,99802.17
2023-11-06T19:53:30.563Z,99799.52
2023-11-06T19:55:59.877Z,99799.20
2023-11-06T19:58:29.299Z,99800.16
2023-11-06T20:00:58.592Z,99805.64
2023-11-06T20:03:28.006Z,99803.37
2023-11-06T20:05:57.672Z,99807.95
2023-11-06T20:08:26.926Z,99807.46
2023-11-06T20:10:56.118Z,99807.79
2023-11-06T20:13:25.377Z,99807.45
2023-11-06T20:15:54.605Z,99806.91
2023-11-06T20:18:23.926Z,99807.96
2023-11-06T20:20:53.309Z,99806.38
2023-11-06T20:23:22.624Z,99805.73
2023-11-06T20:25:51.926Z,99808.23
2023-11-06T20:28:21.132Z,99814.67
2023-11-06T20:30:50.388Z,99811.17
2023-11-06T20:33:19.817Z,99810.20
2023-11-06T20:35:49.140Z,99817.19
2023-11-06T20:38:18.350Z,99818.20
2023-11-06T20:40:47.604Z,99815.92
2023-11-06T20:43:16.880Z,99820.34
2023-11-06T20:45:46.312Z,99818.91
2023-11-06T20:48:15.610Z,99824.27
2023-11-06T20:50:47.472Z,99824.09
2023-11-06T20:53:17.609Z,99829.13
2023-11-06T20:55:47.294Z,99831.56
2023-11-06T20:58:16.468Z,99833.77
2023-11-06T21:00:46.086Z,99837.64
2023-11-06T21:03:15.383Z,99840.81
2023-11-06T21:05:44.787Z,99843.50
2023-11-06T21:08:14.093Z,99842.92
2023-11-06T21:10:43.445Z,99844.64
2023-11-06T21:13:43.671Z,99845.88
2023-11-06T21:16:34.306Z,99844.42
2023-11-06T21:18:52.671Z,99842.82
2023-11-06T21:21:21.928Z,99841.96
2023-11-06T21:23:51.114Z,99849.66
2023-11-06T21:26:20.352Z,99847.11
2023-11-06T21:28:49.869Z,99854.89
2023-11-06T21:31:38.992Z,99855.41
2023-11-06T21:34:08.302Z,99856.22
2023-11-06T21:37:11.194Z,99859.02
2023-11-06T21:39:40.489Z,99864.64
2023-11-06T21:42:10.591Z,99860.53
2023-11-06T21:44:39.810Z,99858.20
2023-11-06T21:47:09.126Z,99863.30
2023-11-06T21:49:40.199Z,99864.09
2023-11-06T21:52:09.441Z,99861.23
2023-11-06T21:54:46.909Z,99863.32
2023-11-06T21:57:21.107Z,99861.06
2023-11-06T21:59:50.367Z,99862.10
2023-11-06T22:02:19.554Z,99856.60
2023-11-06T22:04:48.844Z,99857.22
2023-11-06T22:07:18.268Z,99855.61
2023-11-06T22:09:49.734Z,99856.54
2023-11-06T22:12:19.118Z,99864.21
2023-11-06T22:14:48.597Z,99862.53
2023-11-06T22:17:17.791Z,99865.91
2023-11-06T22:19:47.082Z,99861.05
2023-11-06T22:22:16.342Z,99860.36
2023-11-06T22:24:45.527Z,99858.25
2023-11-06T22:27:14.784Z,99857.23
2023-11-06T22:29:43.967Z,99853.58
2023-11-06T22:32:13.439Z,99858.27
2023-11-06T22:34:42.645Z,99864.31
2023-11-06T22:37:11.946Z,99868.50
2023-11-06T22:39:41.259Z,99868.69
2023-11-06T22:42:10.551Z,99869.53
2023-11-06T22:44:39.831Z,99875.19
2023-11-06T22:47:09.021Z,99868.54
2023-11-06T22:49:38.324Z,99866.84
2023-11-06T22:52:07.700Z,99867.55
2023-11-06T22:54:37.032Z,99866.80
2023-11-06T22:57:08.126Z,99862.27
2023-11-06T22:59:37.503Z,99865.02
2023-11-06T23:02:07.636Z,99872.36
2023-11-06T23:04:36.916Z,99871.89
2023-11-06T23:07:06.228Z,99874.82
2023-11-06T23:09:35.417Z,99875.52
2023-11-06T23:12:05.255Z,99879.11
2023-11-06T23:14:34.476Z,99876.52
2023-11-06T23:17:03.843Z,99879.60
2023-11-06T23:19:33.112Z,99880.55
2023-11-06T23:22:02.480Z,99882.21
2023-11-06T23:24:31.698Z,99887.75
2023-11-06T23:27:00.884Z,99888.73
2023-11-06T23:29:30.183Z,99894.05
2023-11-06T23:31:59.414Z,99896.55
2023-11-06T23:34:28.627Z,99898.67
2023-11-06T23:36:57.814Z,99903.80
2023-11-06T23:39:26.997Z,99902.62
2023-11-06T23:41:56.231Z,99907.19
2023-11-06T23:44:25.497Z,99910.39
2023-11-06T23:46:54.738Z,99914.42
2023-11-06T23:49:25.076Z,99912.92
2023-11-06T23:51:55.339Z,99918.91
2023-11-06T23:54:24.681Z,99921.61
2023-11-06T23:56:53.868Z,99923.48
2023-11-06T23:59:23.141Z,99925.47
